sensor_id;sensor_type;location;lat;lon;timestamp;P1;durP1;ratioP1;P2;durP2;ratioP2
6015;SDS011;3036;49.960;8.454;2022-09-24T00:00:46;2.77;;;2.53;;
6015;SDS011;3036;49.960;8.454;2022-09-24T00:03:17;5.30;;;2.77;;
6015;SDS011;3036;49.960;8.454;2022-09-24T00:05:44;3.17;;;2.97;;
6015;SDS011;3036;49.960;8.454;2022-09-24T00:08:12;3.50;;;3.00;;
6015;SDS011;3036;49.960;8.454;2022-09-24T00:10:40;4.30;;;2.37;;
6015;SDS011;3036;49.960;8.454;2022-09-24T00:13:09;3.43;;;2.10;;
6015;SDS011;3036;49.960;8.454;2022-09-24T00:15:37;2.70;;;2.50;;
6015;SDS011;3036;49.960;8.454;2022-09-24T00:18:04;2.20;;;2.10;;
6015;SDS011;3036;49.960;8.454;2022-09-24T00:20:33;2.30;;;2.20;;
6015;SDS011;3036;49.960;8.454;2022-09-24T00:23:00;2.93;;;2.83;;
6015;SDS011;3036;49.960;8.454;2022-09-24T00:25:27;3.47;;;2.40;;
6015;SDS011;3036;49.960;8.454;2022-09-24T00:28:12;2.70;;;2.50;;
6015;SDS011;3036;49.960;8.454;2022-09-24T00:30:40;2.97;;;2.37;;
6015;SDS011;3036;49.960;8.454;2022-09-24T00:33:07;2.97;;;2.10;;
6015;SDS011;3036;49.960;8.454;2022-09-24T00:35:36;2.07;;;2.07;;
6015;SDS011;3036;49.960;8.454;2022-09-24T00:38:04;2.93;;;2.13;;
6015;SDS011;3036;49.960;8.454;2022-09-24T00:40:31;2.10;;;2.00;;
6015;SDS011;3036;49.960;8.454;2022-09-24T00:42:59;2.73;;;2.50;;
6015;SDS011;3036;49.960;8.454;2022-09-24T00:45:26;2.80;;;2.60;;
6015;SDS011;3036;49.960;8.454;2022-09-24T00:47:53;2.63;;;2.43;;
6015;SDS011;3036;49.960;8.454;2022-09-24T00:50:21;2.53;;;2.43;;
6015;SDS011;3036;49.960;8.454;2022-09-24T00:52:51;2.90;;;2.70;;
6015;SDS011;3036;49.960;8.454;2022-09-24T00:55:20;2.43;;;2.23;;
6015;SDS011;3036;49.960;8.454;2022-09-24T00:57:48;2.70;;;2.50;;
6015;SDS011;3036;49.960;8.454;2022-09-24T01:00:16;3.07;;;2.60;;
6015;SDS011;3036;49.960;8.454;2022-09-24T01:02:45;2.10;;;2.00;;
6015;SDS011;3036;49.960;8.454;2022-09-24T01:05:13;2.67;;;2.40;;
6015;SDS011;3036;49.960;8.454;2022-09-24T01:07:40;2.60;;;2.30;;
6015;SDS011;3036;49.960;8.454;2022-09-24T01:10:09;2.63;;;2.43;;
6015;SDS011;3036;49.960;8.454;2022-09-24T01:12:38;3.03;;;2.40;;
6015;SDS011;3036;49.960;8.454;2022-09-24T01:15:10;5.73;;;2.27;;
6015;SDS011;3036;49.960;8.454;2022-09-24T01:17:42;2.33;;;2.23;;
6015;SDS011;3036;49.960;8.454;2022-09-24T01:20:17;3.37;;;2.27;;
6015;SDS011;3036;49.960;8.454;2022-09-24T01:22:56;2.77;;;2.50;;
6015;SDS011;3036;49.960;8.454;2022-09-24T01:25:30;2.80;;;2.13;;
6015;SDS011;3036;49.960;8.454;2022-09-24T01:28:07;2.87;;;2.17;;
6015;SDS011;3036;49.960;8.454;2022-09-24T01:30:40;2.23;;;2.13;;
6015;SDS011;3036;49.960;8.454;2022-09-24T01:33:10;2.97;;;2.77;;
6015;SDS011;3036;49.960;8.454;2022-09-24T01:35:39;2.60;;;2.40;;
6015;SDS011;3036;49.960;8.454;2022-09-24T01:38:08;3.30;;;2.47;;
6015;SDS011;3036;49.960;8.454;2022-09-24T01:40:37;2.13;;;2.03;;
6015;SDS011;3036;49.960;8.454;2022-09-24T01:43:06;2.70;;;2.50;;
6015;SDS011;3036;49.960;8.454;2022-09-24T01:45:34;2.37;;;2.17;;
6015;SDS011;3036;49.960;8.454;2022-09-24T01:48:04;4.27;;;2.67;;
6015;SDS011;3036;49.960;8.454;2022-09-24T01:50:32;3.60;;;2.83;;
6015;SDS011;3036;49.960;8.454;2022-09-24T01:53:01;3.60;;;3.30;;
6015;SDS011;3036;49.960;8.454;2022-09-24T01:55:30;4.37;;;2.83;;
6015;SDS011;3036;49.960;8.454;2022-09-24T01:58:00;2.97;;;2.77;;
6015;SDS011;3036;49.960;8.454;2022-09-24T02:00:29;2.87;;;2.67;;
6015;SDS011;3036;49.960;8.454;2022-09-24T02:02:57;2.53;;;2.43;;
6015;SDS011;3036;49.960;8.454;2022-09-24T02:05:29;3.53;;;3.23;;
6015;SDS011;3036;49.960;8.454;2022-09-24T02:07:59;3.00;;;2.70;;
6015;SDS011;3036;49.960;8.454;2022-09-24T02:10:30;2.27;;;2.17;;
6015;SDS011;3036;49.960;8.454;2022-09-24T02:13:00;2.97;;;2.77;;
6015;SDS011;3036;49.960;8.454;2022-09-24T02:15:28;2.30;;;2.20;;
6015;SDS011;3036;49.960;8.454;2022-09-24T02:17:58;2.60;;;2.40;;
6015;SDS011;3036;49.960;8.454;2022-09-24T02:20:29;3.23;;;2.13;;
6015;SDS011;3036;49.960;8.454;2022-09-24T02:22:58;2.97;;;2.77;;
6015;SDS011;3036;49.960;8.454;2022-09-24T02:25:27;10.83;;;3.90;;
6015;SDS011;3036;49.960;8.454;2022-09-24T02:27:59;13.40;;;6.33;;
6015;SDS011;3036;49.960;8.454;2022-09-24T02:30:27;3.53;;;2.70;;
6015;SDS011;3036;49.960;8.454;2022-09-24T02:32:54;2.73;;;2.50;;
6015;SDS011;3036;49.960;8.454;2022-09-24T02:35:22;2.40;;;2.20;;
6015;SDS011;3036;49.960;8.454;2022-09-24T02:37:50;5.27;;;2.27;;
6015;SDS011;3036;49.960;8.454;2022-09-24T02:40:17;6.43;;;4.20;;
6015;SDS011;3036;49.960;8.454;2022-09-24T02:42:44;3.30;;;2.90;;
6015;SDS011;3036;49.960;8.454;2022-09-24T02:45:12;2.63;;;2.50;;
6015;SDS011;3036;49.960;8.454;2022-09-24T02:47:39;2.67;;;2.47;;
6015;SDS011;3036;49.960;8.454;2022-09-24T02:50:06;6.13;;;2.60;;
6015;SDS011;3036;49.960;8.454;2022-09-24T02:52:33;3.40;;;2.37;;
6015;SDS011;3036;49.960;8.454;2022-09-24T02:55:01;4.07;;;3.23;;
6015;SDS011;3036;49.960;8.454;2022-09-24T02:57:29;2.80;;;2.60;;
6015;SDS011;3036;49.960;8.454;2022-09-24T02:59:56;3.40;;;2.87;;
6015;SDS011;3036;49.960;8.454;2022-09-24T03:02:23;3.33;;;2.57;;
6015;SDS011;3036;49.960;8.454;2022-09-24T03:04:50;3.20;;;3.00;;
6015;SDS011;3036;49.960;8.454;2022-09-24T03:07:17;4.13;;;2.53;;
6015;SDS011;3036;49.960;8.454;2022-09-24T03:09:45;4.23;;;2.70;;
6015;SDS011;3036;49.960;8.454;2022-09-24T03:12:14;2.37;;;2.20;;
6015;SDS011;3036;49.960;8.454;2022-09-24T03:14:41;3.70;;;2.73;;
6015;SDS011;3036;49.960;8.454;2022-09-24T03:17:08;5.03;;;2.50;;
6015;SDS011;3036;49.960;8.454;2022-09-24T03:19:35;3.43;;;2.80;;
6015;SDS011;3036;49.960;8.454;2022-09-24T03:22:02;2.20;;;2.10;;
6015;SDS011;3036;49.960;8.454;2022-09-24T03:24:29;6.97;;;2.90;;
6015;SDS011;3036;49.960;8.454;2022-09-24T03:26:56;2.80;;;2.60;;
6015;SDS011;3036;49.960;8.454;2022-09-24T03:29:24;2.50;;;2.30;;
6015;SDS011;3036;49.960;8.454;2022-09-24T03:32:05;2.50;;;2.40;;
6015;SDS011;3036;49.960;8.454;2022-09-24T03:34:32;2.50;;;2.40;;
6015;SDS011;3036;49.960;8.454;2022-09-24T03:36:59;2.40;;;2.20;;
6015;SDS011;3036;49.960;8.454;2022-09-24T03:39:26;1.80;;;1.70;;
6015;SDS011;3036;49.960;8.454;2022-09-24T03:42:05;2.20;;;2.10;;
6015;SDS011;3036;49.960;8.454;2022-09-24T03:44:33;1.97;;;1.87;;
6015;SDS011;3036;49.960;8.454;2022-09-24T03:47:00;2.30;;;2.07;;
6015;SDS011;3036;49.960;8.454;2022-09-24T03:49:28;1.83;;;1.73;;
6015;SDS011;3036;49.960;8.454;2022-09-24T03:51:55;2.50;;;2.30;;
6015;SDS011;3036;49.960;8.454;2022-09-24T03:54:22;1.70;;;1.60;;
6015;SDS011;3036;49.960;8.454;2022-09-24T03:56:49;2.47;;;2.27;;
6015;SDS011;3036;49.960;8.454;2022-09-24T03:59:16;2.20;;;2.10;;
6015;SDS011;3036;49.960;8.454;2022-09-24T04:01:44;1.93;;;1.83;;
6015;SDS011;3036;49.960;8.454;2022-09-24T04:04:11;2.00;;;1.90;;
6015;SDS011;3036;49.960;8.454;2022-09-24T04:06:40;2.20;;;1.93;;
6015;SDS011;3036;49.960;8.454;2022-09-24T04:09:07;1.70;;;1.70;;
6015;SDS011;3036;49.960;8.454;2022-09-24T04:11:34;2.23;;;2.00;;
6015;SDS011;3036;49.960;8.454;2022-09-24T04:14:02;2.07;;;1.90;;
6015;SDS011;3036;49.960;8.454;2022-09-24T04:16:29;2.43;;;2.23;;
6015;SDS011;3036;49.960;8.454;2022-09-24T04:18:57;2.37;;;2.17;;
6015;SDS011;3036;49.960;8.454;2022-09-24T04:21:26;2.73;;;2.37;;
6015;SDS011;3036;49.960;8.454;2022-09-24T04:23:54;2.50;;;1.90;;
6015;SDS011;3036;49.960;8.454;2022-09-24T04:26:21;1.80;;;1.70;;
6015;SDS011;3036;49.960;8.454;2022-09-24T04:28:48;2.27;;;2.07;;
6015;SDS011;3036;49.960;8.454;2022-09-24T04:31:15;2.73;;;2.03;;
6015;SDS011;3036;49.960;8.454;2022-09-24T04:33:42;2.10;;;2.00;;
6015;SDS011;3036;49.960;8.454;2022-09-24T04:36:10;2.20;;;2.10;;
6015;SDS011;3036;49.960;8.454;2022-09-24T04:38:37;2.20;;;2.10;;
6015;SDS011;3036;49.960;8.454;2022-09-24T04:41:05;3.47;;;2.23;;
6015;SDS011;3036;49.960;8.454;2022-09-24T04:43:32;2.23;;;2.10;;
6015;SDS011;3036;49.960;8.454;2022-09-24T04:46:00;2.53;;;2.37;;
6015;SDS011;3036;49.960;8.454;2022-09-24T04:48:28;2.17;;;2.07;;
6015;SDS011;3036;49.960;8.454;2022-09-24T04:50:55;3.40;;;2.20;;
6015;SDS011;3036;49.960;8.454;2022-09-24T04:53:23;2.10;;;2.00;;
6015;SDS011;3036;49.960;8.454;2022-09-24T04:55:51;2.23;;;2.13;;
6015;SDS011;3036;49.960;8.454;2022-09-24T04:58:18;2.30;;;2.10;;
6015;SDS011;3036;49.960;8.454;2022-09-24T05:00:45;2.33;;;2.20;;
6015;SDS011;3036;49.960;8.454;2022-09-24T05:03:12;4.13;;;2.03;;
6015;SDS011;3036;49.960;8.454;2022-09-24T05:05:39;2.10;;;1.93;;
6015;SDS011;3036;49.960;8.454;2022-09-24T05:08:06;2.10;;;2.00;;
6015;SDS011;3036;49.960;8.454;2022-09-24T05:10:34;2.07;;;1.97;;
6015;SDS011;3036;49.960;8.454;2022-09-24T05:13:01;3.50;;;2.23;;
6015;SDS011;3036;49.960;8.454;2022-09-24T05:15:28;1.70;;;1.70;;
6015;SDS011;3036;49.960;8.454;2022-09-24T05:17:55;2.00;;;1.80;;
6015;SDS011;3036;49.960;8.454;2022-09-24T05:20:23;1.80;;;1.80;;
6015;SDS011;3036;49.960;8.454;2022-09-24T05:22:50;1.97;;;1.87;;
6015;SDS011;3036;49.960;8.454;2022-09-24T05:25:17;1.87;;;1.77;;
6015;SDS011;3036;49.960;8.454;2022-09-24T05:27:46;2.67;;;2.03;;
6015;SDS011;3036;49.960;8.454;2022-09-24T05:30:13;1.73;;;1.63;;
6015;SDS011;3036;49.960;8.454;2022-09-24T05:32:40;2.07;;;1.97;;
6015;SDS011;3036;49.960;8.454;2022-09-24T05:35:07;1.70;;;1.60;;
6015;SDS011;3036;49.960;8.454;2022-09-24T05:37:35;2.00;;;1.90;;
6015;SDS011;3036;49.960;8.454;2022-09-24T05:40:02;1.47;;;1.47;;
6015;SDS011;3036;49.960;8.454;2022-09-24T05:42:44;1.90;;;1.80;;
6015;SDS011;3036;49.960;8.454;2022-09-24T05:45:16;2.00;;;1.90;;
6015;SDS011;3036;49.960;8.454;2022-09-24T05:47:43;1.80;;;1.80;;
6015;SDS011;3036;49.960;8.454;2022-09-24T05:50:10;2.33;;;2.13;;
6015;SDS011;3036;49.960;8.454;2022-09-24T05:52:37;5.23;;;2.00;;
6015;SDS011;3036;49.960;8.454;2022-09-24T05:55:05;4.87;;;2.07;;
6015;SDS011;3036;49.960;8.454;2022-09-24T05:57:32;1.83;;;1.83;;
6015;SDS011;3036;49.960;8.454;2022-09-24T05:59:59;1.93;;;1.93;;
6015;SDS011;3036;49.960;8.454;2022-09-24T06:02:28;3.43;;;1.93;;
6015;SDS011;3036;49.960;8.454;2022-09-24T06:04:55;1.80;;;1.80;;
6015;SDS011;3036;49.960;8.454;2022-09-24T06:07:22;2.27;;;2.10;;
6015;SDS011;3036;49.960;8.454;2022-09-24T06:09:49;2.10;;;2.00;;
6015;SDS011;3036;49.960;8.454;2022-09-24T06:12:16;2.00;;;1.90;;
6015;SDS011;3036;49.960;8.454;2022-09-24T06:14:43;3.27;;;2.47;;
6015;SDS011;3036;49.960;8.454;2022-09-24T06:17:10;2.80;;;2.10;;
6015;SDS011;3036;49.960;8.454;2022-09-24T06:19:39;2.90;;;2.70;;
6015;SDS011;3036;49.960;8.454;2022-09-24T06:22:06;7.93;;;2.80;;
6015;SDS011;3036;49.960;8.454;2022-09-24T06:24:34;2.03;;;1.93;;
6015;SDS011;3036;49.960;8.454;2022-09-24T06:27:01;1.93;;;1.83;;
6015;SDS011;3036;49.960;8.454;2022-09-24T06:29:28;2.80;;;2.60;;
6015;SDS011;3036;49.960;8.454;2022-09-24T06:31:55;2.90;;;2.67;;
6015;SDS011;3036;49.960;8.454;2022-09-24T06:34:22;6.63;;;3.50;;
6015;SDS011;3036;49.960;8.454;2022-09-24T06:36:53;3.13;;;2.80;;
6015;SDS011;3036;49.960;8.454;2022-09-24T06:39:23;3.83;;;3.27;;
6015;SDS011;3036;49.960;8.454;2022-09-24T06:41:51;3.40;;;3.20;;
6015;SDS011;3036;49.960;8.454;2022-09-24T06:44:18;3.97;;;3.67;;
6015;SDS011;3036;49.960;8.454;2022-09-24T06:46:45;3.80;;;3.50;;
6015;SDS011;3036;49.960;8.454;2022-09-24T06:49:13;7.13;;;3.90;;
6015;SDS011;3036;49.960;8.454;2022-09-24T06:51:40;4.17;;;3.87;;
6015;SDS011;3036;49.960;8.454;2022-09-24T06:54:08;4.40;;;4.00;;
6015;SDS011;3036;49.960;8.454;2022-09-24T06:56:35;4.53;;;3.80;;
6015;SDS011;3036;49.960;8.454;2022-09-24T06:59:02;3.77;;;3.47;;
6015;SDS011;3036;49.960;8.454;2022-09-24T07:01:30;4.07;;;3.33;;
6015;SDS011;3036;49.960;8.454;2022-09-24T07:03:57;3.70;;;3.40;;
6015;SDS011;3036;49.960;8.454;2022-09-24T07:06:24;4.37;;;4.00;;
6015;SDS011;3036;49.960;8.454;2022-09-24T07:09:13;4.30;;;3.87;;
6015;SDS011;3036;49.960;8.454;2022-09-24T07:11:40;4.73;;;4.00;;
6015;SDS011;3036;49.960;8.454;2022-09-24T07:14:09;4.10;;;3.80;;
6015;SDS011;3036;49.960;8.454;2022-09-24T07:16:36;4.10;;;3.70;;
6015;SDS011;3036;49.960;8.454;2022-09-24T07:19:03;3.90;;;3.60;;
6015;SDS011;3036;49.960;8.454;2022-09-24T07:21:30;3.63;;;3.40;;
6015;SDS011;3036;49.960;8.454;2022-09-24T07:23:57;4.90;;;3.70;;
6015;SDS011;3036;49.960;8.454;2022-09-24T07:26:25;4.83;;;3.63;;
6015;SDS011;3036;49.960;8.454;2022-09-24T07:28:53;5.87;;;4.73;;
6015;SDS011;3036;49.960;8.454;2022-09-24T07:31:20;4.70;;;4.20;;
6015;SDS011;3036;49.960;8.454;2022-09-24T07:33:49;4.10;;;3.80;;
6015;SDS011;3036;49.960;8.454;2022-09-24T07:36:17;6.67;;;5.13;;
6015;SDS011;3036;49.960;8.454;2022-09-24T07:38:44;6.53;;;4.93;;
6015;SDS011;3036;49.960;8.454;2022-09-24T07:41:11;4.60;;;4.20;;
6015;SDS011;3036;49.960;8.454;2022-09-24T07:43:39;6.40;;;4.97;;
6015;SDS011;3036;49.960;8.454;2022-09-24T07:48:59;6.13;;;5.10;;
6015;SDS011;3036;49.960;8.454;2022-09-24T07:51:26;5.77;;;5.23;;
6015;SDS011;3036;49.960;8.454;2022-09-24T07:53:54;5.23;;;4.73;;
6015;SDS011;3036;49.960;8.454;2022-09-24T07:56:22;5.43;;;4.63;;
6015;SDS011;3036;49.960;8.454;2022-09-24T07:58:50;6.67;;;4.80;;
6015;SDS011;3036;49.960;8.454;2022-09-24T08:01:18;6.90;;;5.27;;
6015;SDS011;3036;49.960;8.454;2022-09-24T08:03:45;5.43;;;5.03;;
6015;SDS011;3036;49.960;8.454;2022-09-24T08:06:12;6.13;;;5.47;;
6015;SDS011;3036;49.960;8.454;2022-09-24T08:08:39;6.90;;;4.83;;
6015;SDS011;3036;49.960;8.454;2022-09-24T08:11:08;5.93;;;5.33;;
6015;SDS011;3036;49.960;8.454;2022-09-24T08:13:36;9.93;;;4.90;;
6015;SDS011;3036;49.960;8.454;2022-09-24T08:16:04;5.93;;;5.07;;
6015;SDS011;3036;49.960;8.454;2022-09-24T08:18:32;6.47;;;5.47;;
6015;SDS011;3036;49.960;8.454;2022-09-24T08:21:02;6.10;;;5.50;;
6015;SDS011;3036;49.960;8.454;2022-09-24T08:23:30;5.50;;;5.10;;
6015;SDS011;3036;49.960;8.454;2022-09-24T08:25:57;6.83;;;5.20;;
6015;SDS011;3036;49.960;8.454;2022-09-24T08:28:24;7.33;;;5.23;;
6015;SDS011;3036;49.960;8.454;2022-09-24T08:30:52;11.47;;;5.63;;
6015;SDS011;3036;49.960;8.454;2022-09-24T08:33:24;6.20;;;5.60;;
6015;SDS011;3036;49.960;8.454;2022-09-24T08:35:51;13.13;;;6.23;;
6015;SDS011;3036;49.960;8.454;2022-09-24T08:38:18;5.93;;;5.43;;
6015;SDS011;3036;49.960;8.454;2022-09-24T08:40:48;5.30;;;4.87;;
6015;SDS011;3036;49.960;8.454;2022-09-24T08:43:22;7.13;;;5.57;;
6015;SDS011;3036;49.960;8.454;2022-09-24T08:45:53;6.33;;;5.63;;
6015;SDS011;3036;49.960;8.454;2022-09-24T08:48:41;7.97;;;6.30;;
6015;SDS011;3036;49.960;8.454;2022-09-24T08:51:10;6.70;;;6.00;;
6015;SDS011;3036;49.960;8.454;2022-09-24T08:53:41;9.23;;;6.37;;
6015;SDS011;3036;49.960;8.454;2022-09-24T08:56:10;7.33;;;5.87;;
6015;SDS011;3036;49.960;8.454;2022-09-24T08:58:39;6.87;;;5.37;;
6015;SDS011;3036;49.960;8.454;2022-09-24T09:01:13;6.60;;;6.00;;
6015;SDS011;3036;49.960;8.454;2022-09-24T09:03:45;7.07;;;5.87;;
6015;SDS011;3036;49.960;8.454;2022-09-24T09:06:22;7.15;;;6.30;;
6015;SDS011;3036;49.960;8.454;2022-09-24T09:08:56;7.00;;;6.13;;
6015;SDS011;3036;49.960;8.454;2022-09-24T09:11:26;7.60;;;6.80;;
6015;SDS011;3036;49.960;8.454;2022-09-24T09:13:55;7.53;;;6.73;;
6015;SDS011;3036;49.960;8.454;2022-09-24T09:16:25;8.02;;;6.20;;
6015;SDS011;3036;49.960;8.454;2022-09-24T09:18:56;9.60;;;6.22;;
6015;SDS011;3036;49.960;8.454;2022-09-24T09:21:27;9.05;;;6.15;;
6015;SDS011;3036;49.960;8.454;2022-09-24T09:23:57;7.75;;;6.25;;
6015;SDS011;3036;49.960;8.454;2022-09-24T09:26:24;9.77;;;6.43;;
6015;SDS011;3036;49.960;8.454;2022-09-24T09:28:52;9.05;;;6.32;;
6015;SDS011;3036;49.960;8.454;2022-09-24T09:31:25;6.60;;;5.78;;
6015;SDS011;3036;49.960;8.454;2022-09-24T09:33:59;7.15;;;6.07;;
6015;SDS011;3036;49.960;8.454;2022-09-24T09:36:34;6.78;;;5.90;;
6015;SDS011;3036;49.960;8.454;2022-09-24T09:39:06;7.13;;;6.43;;
6015;SDS011;3036;49.960;8.454;2022-09-24T09:41:45;9.32;;;6.40;;
6015;SDS011;3036;49.960;8.454;2022-09-24T09:44:24;8.15;;;6.05;;
6015;SDS011;3036;49.960;8.454;2022-09-24T09:46:52;8.40;;;6.68;;
6015;SDS011;3036;49.960;8.454;2022-09-24T09:49:22;8.35;;;6.13;;
6015;SDS011;3036;49.960;8.454;2022-09-24T09:51:53;9.80;;;7.30;;
6015;SDS011;3036;49.960;8.454;2022-09-24T09:54:34;8.55;;;6.60;;
6015;SDS011;3036;49.960;8.454;2022-09-24T09:57:01;7.95;;;6.68;;
6015;SDS011;3036;49.960;8.454;2022-09-24T09:59:28;7.70;;;6.68;;
6015;SDS011;3036;49.960;8.454;2022-09-24T10:01:58;8.07;;;6.95;;
6015;SDS011;3036;49.960;8.454;2022-09-24T10:04:34;13.18;;;7.13;;
6015;SDS011;3036;49.960;8.454;2022-09-24T10:07:07;10.48;;;7.10;;
6015;SDS011;3036;49.960;8.454;2022-09-24T10:09:34;11.02;;;6.80;;
6015;SDS011;3036;49.960;8.454;2022-09-24T10:12:08;7.22;;;6.53;;
6015;SDS011;3036;49.960;8.454;2022-09-24T10:14:35;7.47;;;6.18;;
6015;SDS011;3036;49.960;8.454;2022-09-24T10:17:02;7.53;;;6.25;;
6015;SDS011;3036;49.960;8.454;2022-09-24T10:19:31;7.07;;;6.30;;
6015;SDS011;3036;49.960;8.454;2022-09-24T10:22:07;8.02;;;6.90;;
6015;SDS011;3036;49.960;8.454;2022-09-24T10:24:35;7.78;;;6.28;;
6015;SDS011;3036;49.960;8.454;2022-09-24T10:27:09;7.80;;;6.32;;
6015;SDS011;3036;49.960;8.454;2022-09-24T10:29:36;7.22;;;6.45;;
6015;SDS011;3036;49.960;8.454;2022-09-24T10:32:22;9.55;;;7.03;;
6015;SDS011;3036;49.960;8.454;2022-09-24T10:34:55;7.20;;;5.80;;
6015;SDS011;3036;49.960;8.454;2022-09-24T10:37:24;11.63;;;6.10;;
6015;SDS011;3036;49.960;8.454;2022-09-24T10:39:58;6.15;;;5.60;;
6015;SDS011;3036;49.960;8.454;2022-09-24T10:42:25;7.78;;;5.75;;
6015;SDS011;3036;49.960;8.454;2022-09-24T10:44:53;9.80;;;6.25;;
6015;SDS011;3036;49.960;8.454;2022-09-24T10:47:23;7.72;;;5.75;;
6015;SDS011;3036;49.960;8.454;2022-09-24T10:49:54;9.98;;;6.35;;
6015;SDS011;3036;49.960;8.454;2022-09-24T10:52:31;10.43;;;7.03;;
6015;SDS011;3036;49.960;8.454;2022-09-24T10:55:01;6.20;;;5.65;;
6015;SDS011;3036;49.960;8.454;2022-09-24T10:57:33;9.65;;;5.75;;
6015;SDS011;3036;49.960;8.454;2022-09-24T11:00:07;5.90;;;5.30;;
6015;SDS011;3036;49.960;8.454;2022-09-24T11:02:39;6.13;;;5.53;;
6015;SDS011;3036;49.960;8.454;2022-09-24T11:05:08;6.10;;;4.82;;
6015;SDS011;3036;49.960;8.454;2022-09-24T11:10:30;6.15;;;4.55;;
6015;SDS011;3036;49.960;8.454;2022-09-24T11:13:02;3.70;;;3.40;;
6015;SDS011;3036;49.960;8.454;2022-09-24T11:15:39;4.00;;;3.70;;
6015;SDS011;3036;49.960;8.454;2022-09-24T11:18:14;3.10;;;2.80;;
6015;SDS011;3036;49.960;8.454;2022-09-24T11:20:46;3.42;;;3.10;;
6015;SDS011;3036;49.960;8.454;2022-09-24T11:23:20;3.80;;;3.50;;
6015;SDS011;3036;49.960;8.454;2022-09-24T11:25:56;4.20;;;3.90;;
6015;SDS011;3036;49.960;8.454;2022-09-24T11:28:31;4.50;;;4.10;;
6015;SDS011;3036;49.960;8.454;2022-09-24T11:31:06;3.13;;;2.92;;
6015;SDS011;3036;49.960;8.454;2022-09-24T11:33:37;3.28;;;2.97;;
6015;SDS011;3036;49.960;8.454;2022-09-24T11:36:19;2.92;;;2.72;;
6015;SDS011;3036;49.960;8.454;2022-09-24T11:38:56;2.80;;;2.70;;
6015;SDS011;3036;49.960;8.454;2022-09-24T11:41:31;2.92;;;2.78;;
6015;SDS011;3036;49.960;8.454;2022-09-24T11:44:11;2.60;;;2.50;;
6015;SDS011;3036;49.960;8.454;2022-09-24T11:46:46;3.40;;;2.95;;
6015;SDS011;3036;49.960;8.454;2022-09-24T11:49:25;2.95;;;2.78;;
6015;SDS011;3036;49.960;8.454;2022-09-24T11:51:55;3.08;;;2.88;;
6015;SDS011;3036;49.960;8.454;2022-09-24T11:54:28;3.30;;;3.10;;
6015;SDS011;3036;49.960;8.454;2022-09-24T11:56:58;2.67;;;2.47;;
6015;SDS011;3036;49.960;8.454;2022-09-24T11:59:30;4.22;;;3.33;;
6015;SDS011;3036;49.960;8.454;2022-09-24T12:01:59;3.17;;;2.88;;
6015;SDS011;3036;49.960;8.454;2022-09-24T12:04:31;3.33;;;3.13;;
6015;SDS011;3036;49.960;8.454;2022-09-24T12:07:04;3.35;;;3.15;;
6015;SDS011;3036;49.960;8.454;2022-09-24T12:09:37;3.42;;;3.20;;
6015;SDS011;3036;49.960;8.454;2022-09-24T12:12:08;4.53;;;3.60;;
6015;SDS011;3036;49.960;8.454;2022-09-24T12:14:42;3.03;;;2.83;;
6015;SDS011;3036;49.960;8.454;2022-09-24T12:17:16;2.72;;;2.50;;
6015;SDS011;3036;49.960;8.454;2022-09-24T12:19:47;2.45;;;2.35;;
6015;SDS011;3036;49.960;8.454;2022-09-24T12:22:15;7.95;;;2.40;;
6015;SDS011;3036;49.960;8.454;2022-09-24T12:24:44;4.68;;;3.00;;
6015;SDS011;3036;49.960;8.454;2022-09-24T12:27:13;3.50;;;3.22;;
6015;SDS011;3036;49.960;8.454;2022-09-24T12:29:43;2.90;;;2.70;;
6015;SDS011;3036;49.960;8.454;2022-09-24T12:32:33;2.50;;;2.40;;
6015;SDS011;3036;49.960;8.454;2022-09-24T12:35:28;2.70;;;2.60;;
6015;SDS011;3036;49.960;8.454;2022-09-24T12:37:57;2.72;;;2.63;;
6015;SDS011;3036;49.960;8.454;2022-09-24T12:40:35;2.45;;;2.15;;
6015;SDS011;3036;49.960;8.454;2022-09-24T12:43:09;1.73;;;1.70;;
6015;SDS011;3036;49.960;8.454;2022-09-24T12:45:39;1.60;;;1.60;;
6015;SDS011;3036;49.960;8.454;2022-09-24T12:48:10;1.73;;;1.73;;
6015;SDS011;3036;49.960;8.454;2022-09-24T12:50:39;2.17;;;2.08;;
6015;SDS011;3036;49.960;8.454;2022-09-24T12:53:17;2.70;;;2.17;;
6015;SDS011;3036;49.960;8.454;2022-09-24T12:55:48;2.47;;;2.05;;
6015;SDS011;3036;49.960;8.454;2022-09-24T12:58:25;2.55;;;2.45;;
6015;SDS011;3036;49.960;8.454;2022-09-24T13:01:03;2.58;;;2.47;;
6015;SDS011;3036;49.960;8.454;2022-09-24T13:03:31;3.20;;;2.60;;
6015;SDS011;3036;49.960;8.454;2022-09-24T13:05:58;2.50;;;2.30;;
6015;SDS011;3036;49.960;8.454;2022-09-24T13:08:26;2.65;;;1.70;;
6015;SDS011;3036;49.960;8.454;2022-09-24T13:11:01;2.25;;;2.15;;
6015;SDS011;3036;49.960;8.454;2022-09-24T13:13:32;3.22;;;2.90;;
6015;SDS011;3036;49.960;8.454;2022-09-24T13:16:00;2.20;;;2.10;;
6015;SDS011;3036;49.960;8.454;2022-09-24T13:18:28;2.33;;;2.22;;
6015;SDS011;3036;49.960;8.454;2022-09-24T13:20:58;3.15;;;2.67;;
6015;SDS011;3036;49.960;8.454;2022-09-24T13:23:41;3.08;;;2.63;;
6015;SDS011;3036;49.960;8.454;2022-09-24T13:26:11;3.63;;;3.30;;
6015;SDS011;3036;49.960;8.454;2022-09-24T13:28:49;3.45;;;2.53;;
6015;SDS011;3036;49.960;8.454;2022-09-24T13:31:21;2.83;;;2.67;;
6015;SDS011;3036;49.960;8.454;2022-09-24T13:33:52;3.63;;;3.30;;
6015;SDS011;3036;49.960;8.454;2022-09-24T13:36:22;3.35;;;3.08;;
6015;SDS011;3036;49.960;8.454;2022-09-24T13:38:54;2.72;;;2.47;;
6015;SDS011;3036;49.960;8.454;2022-09-24T13:41:23;4.63;;;3.25;;
6015;SDS011;3036;49.960;8.454;2022-09-24T13:43:53;3.10;;;2.78;;
6015;SDS011;3036;49.960;8.454;2022-09-24T13:46:21;3.47;;;2.50;;
6015;SDS011;3036;49.960;8.454;2022-09-24T13:48:50;3.47;;;3.15;;
6015;SDS011;3036;49.960;8.454;2022-09-24T13:51:19;3.42;;;3.17;;
6015;SDS011;3036;49.960;8.454;2022-09-24T13:53:48;3.92;;;3.63;;
6015;SDS011;3036;49.960;8.454;2022-09-24T13:56:18;3.28;;;3.08;;
6015;SDS011;3036;49.960;8.454;2022-09-24T13:58:46;5.10;;;4.25;;
6015;SDS011;3036;49.960;8.454;2022-09-24T14:01:17;4.13;;;3.72;;
6015;SDS011;3036;49.960;8.454;2022-09-24T14:03:50;4.70;;;4.28;;
6015;SDS011;3036;49.960;8.454;2022-09-24T14:06:18;4.35;;;3.95;;
6015;SDS011;3036;49.960;8.454;2022-09-24T14:08:47;4.00;;;3.70;;
6015;SDS011;3036;49.960;8.454;2022-09-24T14:11:16;4.28;;;3.85;;
6015;SDS011;3036;49.960;8.454;2022-09-24T14:13:44;4.28;;;3.88;;
6015;SDS011;3036;49.960;8.454;2022-09-24T14:16:13;5.18;;;4.38;;
6015;SDS011;3036;49.960;8.454;2022-09-24T14:18:41;5.15;;;4.53;;
6015;SDS011;3036;49.960;8.454;2022-09-24T14:21:09;4.50;;;4.15;;
6015;SDS011;3036;49.960;8.454;2022-09-24T14:23:39;5.35;;;4.85;;
6015;SDS011;3036;49.960;8.454;2022-09-24T14:26:09;4.72;;;4.32;;
6015;SDS011;3036;49.960;8.454;2022-09-24T14:28:41;4.93;;;4.47;;
6015;SDS011;3036;49.960;8.454;2022-09-24T14:31:08;6.28;;;4.18;;
6015;SDS011;3036;49.960;8.454;2022-09-24T14:33:35;6.53;;;5.05;;
6015;SDS011;3036;49.960;8.454;2022-09-24T14:36:04;5.07;;;4.57;;
6015;SDS011;3036;49.960;8.454;2022-09-24T14:38:45;6.65;;;4.55;;
6015;SDS011;3036;49.960;8.454;2022-09-24T14:41:14;6.15;;;4.35;;
6015;SDS011;3036;49.960;8.454;2022-09-24T14:43:44;4.15;;;3.85;;
6015;SDS011;3036;49.960;8.454;2022-09-24T14:46:14;5.72;;;4.65;;
6015;SDS011;3036;49.960;8.454;2022-09-24T14:48:41;7.57;;;4.57;;
6015;SDS011;3036;49.960;8.454;2022-09-24T14:51:20;4.78;;;4.25;;
6015;SDS011;3036;49.960;8.454;2022-09-24T14:53:55;5.38;;;3.58;;
6015;SDS011;3036;49.960;8.454;2022-09-24T14:56:25;3.35;;;3.15;;
6015;SDS011;3036;49.960;8.454;2022-09-24T14:58:53;3.30;;;2.90;;
6015;SDS011;3036;49.960;8.454;2022-09-24T15:01:20;3.15;;;2.90;;
6015;SDS011;3036;49.960;8.454;2022-09-24T15:03:49;2.85;;;2.65;;
6015;SDS011;3036;49.960;8.454;2022-09-24T15:06:17;2.97;;;2.55;;
6015;SDS011;3036;49.960;8.454;2022-09-24T15:11:35;3.33;;;3.08;;
6015;SDS011;3036;49.960;8.454;2022-09-24T15:14:10;3.42;;;3.22;;
6015;SDS011;3036;49.960;8.454;2022-09-24T15:16:39;4.20;;;3.22;;
6015;SDS011;3036;49.960;8.454;2022-09-24T15:19:12;3.20;;;3.00;;
6015;SDS011;3036;49.960;8.454;2022-09-24T15:21:41;2.97;;;2.88;;
6015;SDS011;3036;49.960;8.454;2022-09-24T15:24:09;3.65;;;3.28;;
6015;SDS011;3036;49.960;8.454;2022-09-24T15:26:38;2.72;;;2.63;;
6015;SDS011;3036;49.960;8.454;2022-09-24T15:29:06;3.00;;;2.90;;
6015;SDS011;3036;49.960;8.454;2022-09-24T15:31:33;3.22;;;3.03;;
6015;SDS011;3036;49.960;8.454;2022-09-24T15:34:00;3.22;;;3.03;;
6015;SDS011;3036;49.960;8.454;2022-09-24T15:36:27;3.53;;;3.33;;
6015;SDS011;3036;49.960;8.454;2022-09-24T15:38:56;4.40;;;3.22;;